ENAT

Alta Airport

Alta, Norway
METAR ENAT 190250Z AUTO VRB02KT 9999 OVC046/// 06/04 Q1004 RMK WIND 700FT 17005KT
Observed Flight Rules
Sep-19 @ 02:50 UTC (28 minutes ago) Visual Flight Rules
Wind Visibility Clouds
Variable at 2 knots 10,000+ meters
  • Overcast at 4,600' AGL
Temperatures Readings
Current 6°C / 43°F
Dewpoint 4°C / 39°F
Humidity 87%
Altimeter 29.65" Hg
Pressure 1004 hPa
Elevation 3
METAR ENAT 190250Z AUTO VRB02KT 9999 OVC046/// 06/04 Q1004 RMK WIND 700FT 17005KT
Observed Flight Rules
Sep-19 @ 02:50 UTC
(28 minutes ago)
VFR
Wind Visibility
Variable at 2 knots 10,000+ meters
Clouds
  • Overcast at 4,600' AGL
Temperature Dewpoint
6°C / 43°F 4°C / 39°F
Humidity Altimeter Pressure
87% 29.65" Hg 1004 hPa